Time;durP1;ratioP1;P1;durP2;ratioP2;P2;SDS_P1;SDS_P2;PMS_P1;PMS_P2;Temp;Humidity;BMP_temperature;BMP_pressure;BME280_temperature;BME280_humidity;BME280_pressure;Samples;Min_cycle;Max_cycle;Signal;HPM_P1;HPM_P2
2022/06/29 00:00:44;;;;;;;0.00;0.00;;;21.90;99.90;21.10;96508.00;;;;5031836;28;20230;-71
2022/06/29 00:03:12;;;;;;;0.00;0.00;;;21.90;99.90;21.10;96499.00;;;;5047905;28;20227;-70
2022/06/29 00:05:40;;;;;;;0.00;0.00;;;21.90;99.90;21.10;96496.00;;;;5038178;28;20201;-70
2022/06/29 00:08:08;;;;;;;0.00;0.00;;;21.90;99.90;21.00;96495.00;;;;5051658;28;20248;-70
2022/06/29 00:10:38;;;;;;;0.00;0.00;;;21.90;99.90;21.10;96497.00;;;;5044359;28;20210;-71
2022/06/29 00:13:07;;;;;;;0.00;0.00;;;21.90;99.90;21.00;96472.00;;;;5040536;28;20203;-71
2022/06/29 00:15:37;;;;;;;0.00;0.00;;;21.90;99.90;21.00;96471.00;;;;5046254;28;20205;-71
2022/06/29 00:18:06;;;;;;;0.00;0.00;;;21.80;99.90;20.90;96467.00;;;;5043208;28;20227;-71
2022/06/29 00:20:38;;;;;;;0.00;0.00;;;21.80;99.90;20.90;96465.00;;;;5046719;28;20237;-72
2022/06/29 00:23:06;;;;;;;0.00;0.00;;;21.80;99.90;21.00;96455.00;;;;5031808;28;20205;-70
2022/06/29 00:25:34;;;;;;;0.00;0.00;;;21.80;99.90;20.90;96449.00;;;;5044416;28;20244;-71
2022/06/29 00:28:03;;;;;;;0.00;0.00;;;21.80;99.90;20.90;96447.00;;;;5049570;28;20205;-71
2022/06/29 00:30:32;;;;;;;0.00;0.00;;;21.80;99.90;20.70;96445.00;;;;5036558;28;20219;-71
2022/06/29 00:33:00;;;;;;;0.00;0.00;;;21.70;99.90;20.70;96437.00;;;;5031457;28;20206;-71
2022/06/29 00:35:29;;;;;;;0.00;0.00;;;21.70;99.90;20.80;96443.00;;;;5032342;28;20237;-71
2022/06/29 00:37:56;;;;;;;0.00;0.00;;;21.70;99.90;20.80;96446.00;;;;5039005;28;20206;-71
2022/06/29 00:40:25;;;;;;;0.00;0.00;;;21.70;99.90;20.80;96439.00;;;;5051020;28;20240;-71
2022/06/29 00:42:53;;;;;;;0.00;0.00;;;21.70;99.90;20.80;96431.00;;;;5051314;28;20669;-70
2022/06/29 00:45:21;;;;;;;0.00;0.00;;;21.70;99.90;20.80;96414.00;;;;5039952;28;20214;-71
2022/06/29 00:47:50;;;;;;;0.00;0.00;;;21.70;99.90;20.80;96415.00;;;;5044533;28;20686;-70
2022/06/29 00:50:18;;;;;;;0.00;0.00;;;21.70;99.90;20.80;96423.00;;;;5031110;28;20230;-70
2022/06/29 00:52:46;;;;;;;0.00;0.00;;;21.60;99.90;20.70;96414.00;;;;5031021;28;20199;-71
2022/06/29 00:55:19;;;;;;;0.00;0.00;;;21.60;99.90;20.60;96437.00;;;;5041397;28;20574;-70
2022/06/29 00:57:51;;;;;;;0.00;0.00;;;21.50;99.90;20.60;96420.00;;;;5048084;28;20191;-70
2022/06/29 01:00:20;;;;;;;0.00;0.00;;;21.50;99.90;20.50;96410.00;;;;5036488;28;20210;-70
2022/06/29 01:02:50;;;;;;;0.00;0.00;;;21.40;99.90;20.40;96401.00;;;;5051153;28;20190;-70
2022/06/29 01:05:18;;;;;;;0.00;0.00;;;21.30;99.90;20.30;96387.00;;;;5035293;28;20341;-71
2022/06/29 01:07:46;;;;;;;0.00;0.00;;;21.20;99.90;20.20;96380.00;;;;5030681;28;20198;-70
2022/06/29 01:10:14;;;;;;;0.00;0.00;;;21.20;99.90;20.30;96389.00;;;;5035444;28;20210;-70
2022/06/29 01:12:42;;;;;;;0.00;0.00;;;21.20;99.90;20.40;96395.00;;;;5032112;28;20264;-70
2022/06/29 01:15:10;;;;;;;0.00;0.00;;;21.30;99.90;20.30;96398.00;;;;5045494;28;20234;-70
2022/06/29 01:17:38;;;;;;;0.00;0.00;;;21.30;99.90;20.60;96412.00;;;;5050741;28;20256;-70
2022/06/29 01:20:10;;;;;;;0.00;0.00;;;21.40;99.90;20.50;96408.00;;;;5044153;28;20709;-70
2022/06/29 01:22:41;;;;;;;0.00;0.00;;;21.40;99.90;20.60;96416.00;;;;5037954;28;20203;-69
2022/06/29 01:25:10;;;;;;;0.00;0.00;;;21.50;99.90;20.60;96401.00;;;;5044540;28;20287;-70
2022/06/29 01:27:38;;;;;;;0.00;0.00;;;21.50;99.90;20.60;96405.00;;;;5037862;28;20202;-70
2022/06/29 01:30:08;;;;;;;0.00;0.00;;;21.50;99.90;20.60;96405.00;;;;5031055;28;20337;-70
2022/06/29 01:32:38;;;;;;;0.00;0.00;;;21.50;99.90;20.60;96390.00;;;;5030505;28;20206;-70
2022/06/29 01:35:10;;;;;;;0.00;0.00;;;21.50;99.90;20.60;96388.00;;;;5034501;28;20222;-70
2022/06/29 01:37:41;;;;;;;0.00;0.00;;;21.50;99.90;20.50;96384.00;;;;5040054;28;20716;-70
2022/06/29 01:40:11;;;;;;;0.00;0.00;;;21.40;99.90;20.50;96361.00;;;;5049902;28;20230;-70
2022/06/29 01:42:39;;;;;;;0.00;0.00;;;21.40;99.90;20.50;96374.00;;;;5050406;28;20252;-70
2022/06/29 01:45:09;;;;;;;0.00;0.00;;;21.40;99.90;20.50;96380.00;;;;5036581;28;20218;-70
2022/06/29 01:47:37;;;;;;;0.00;0.00;;;21.40;99.90;20.50;96366.00;;;;5035704;28;20207;-70
2022/06/29 01:50:06;;;;;;;0.00;0.00;;;21.40;99.90;20.60;96361.00;;;;5037635;28;20219;-70
2022/06/29 01:52:34;;;;;;;0.00;0.00;;;21.40;99.90;20.50;96374.00;;;;5034107;28;20213;-72
2022/06/29 01:55:05;;;;;;;0.00;0.00;;;21.40;99.90;20.50;96364.00;;;;5047747;28;20566;-72
2022/06/29 01:57:33;;;;;;;0.00;0.00;;;21.40;99.90;20.50;96380.00;;;;5050234;28;20515;-70
2022/06/29 02:00:01;;;;;;;0.00;0.00;;;21.40;99.90;20.50;96365.00;;;;5052149;28;20210;-70
2022/06/29 02:02:34;;;;;;;0.00;0.00;;;21.40;99.90;20.50;96355.00;;;;5054002;28;20206;-70
2022/06/29 02:05:02;;;;;;;0.00;0.00;;;21.30;99.90;20.40;96375.00;;;;5043655;28;20279;-70
2022/06/29 02:07:30;;;;;;;0.00;0.00;;;21.30;99.90;20.30;96352.00;;;;5053380;28;20247;-70
2022/06/29 02:09:58;;;;;;;0.00;0.00;;;21.20;99.90;20.30;96352.00;;;;5054037;28;20627;-70
2022/06/29 02:12:27;;;;;;;0.00;0.00;;;21.20;99.90;20.30;96357.00;;;;5052893;28;20187;-70
2022/06/29 02:14:55;;;;;;;0.00;0.00;;;21.20;99.90;20.20;96341.00;;;;5039302;28;20203;-71
2022/06/29 02:17:24;;;;;;;0.00;0.00;;;21.10;99.90;20.10;96348.00;;;;5033685;28;20667;-71
2022/06/29 02:19:52;;;;;;;0.00;0.00;;;21.10;99.90;20.20;96354.00;;;;5036413;28;20222;-70
2022/06/29 02:22:19;;;;;;;0.00;0.00;;;21.10;99.90;20.10;96352.00;;;;5050140;28;20199;-71
2022/06/29 02:24:49;;;;;;;0.00;0.00;;;21.00;99.90;20.10;96350.00;;;;5040919;28;20246;-71
2022/06/29 02:27:17;;;;;;;0.00;0.00;;;21.00;99.90;20.00;96339.00;;;;5051378;28;20194;-71
2022/06/29 02:29:46;;;;;;;0.00;0.00;;;21.00;99.90;19.90;96343.00;;;;5045301;28;20218;-72
2022/06/29 02:34:59;;;;;;;0.00;0.00;;;20.90;99.90;19.80;96336.00;;;;5043839;28;20240;-71
2022/06/29 02:37:28;;;;;;;0.00;0.00;;;20.90;99.90;19.80;96329.00;;;;5051046;28;20198;-71
2022/06/29 02:39:56;;;;;;;0.00;0.00;;;20.80;99.90;19.90;96346.00;;;;5039028;28;20225;-73
2022/06/29 02:42:23;;;;;;;0.00;0.00;;;20.90;99.90;20.00;96354.00;;;;5053506;28;20196;-74
2022/06/29 02:45:13;;;;;;;0.00;0.00;;;21.00;99.90;20.10;96340.00;;;;5037061;28;20215;-71
2022/06/29 02:47:48;;;;;;;0.00;0.00;;;21.00;99.90;20.00;96342.00;;;;5034172;28;20201;-70
2022/06/29 02:50:16;;;;;;;0.00;0.00;;;21.00;99.90;20.00;96343.00;;;;5038872;28;20218;-71
2022/06/29 02:52:44;;;;;;;0.00;0.00;;;20.90;99.90;19.80;96320.00;;;;5045592;28;20263;-70
2022/06/29 02:55:12;;;;;;;0.00;0.00;;;20.80;99.90;19.90;96339.00;;;;5045737;28;20248;-70
2022/06/29 02:57:40;;;;;;;0.00;0.00;;;20.90;99.90;20.00;96334.00;;;;5051935;28;20198;-70
2022/06/29 03:00:09;;;;;;;0.00;0.00;;;20.90;99.90;20.10;96329.00;;;;5053370;28;20218;-69
2022/06/29 03:02:39;;;;;;;0.00;0.00;;;21.00;99.90;20.10;96349.00;;;;5053093;28;20256;-69
2022/06/29 03:05:08;;;;;;;0.00;0.00;;;21.00;99.90;20.10;96335.00;;;;5045764;28;20258;-70
2022/06/29 03:07:36;;;;;;;0.00;0.00;;;21.00;99.90;20.10;96252.00;;;;5039432;28;20203;-71
2022/06/29 03:10:05;;;;;;;0.00;0.00;;;21.00;99.90;20.10;96336.00;;;;5050429;28;20685;-70
2022/06/29 03:12:33;;;;;;;0.00;0.00;;;21.00;99.90;20.10;96343.00;;;;5037128;28;20682;-70
2022/06/29 03:15:01;;;;;;;0.00;0.00;;;21.10;99.90;20.10;96330.00;;;;5050701;28;20201;-69
2022/06/29 03:17:29;;;;;;;0.00;0.00;;;21.00;99.90;19.90;96324.00;;;;5032146;28;20207;-70
2022/06/29 03:19:59;;;;;;;0.00;0.00;;;20.90;99.90;19.80;96311.00;;;;5039645;28;20206;-70
2022/06/29 03:22:27;;;;;;;0.00;0.00;;;20.80;99.90;19.60;96311.00;;;;5051739;28;20199;-69
2022/06/29 03:24:55;;;;;;;0.00;0.00;;;20.60;99.90;19.40;96293.00;;;;5039681;28;20706;-70
2022/06/29 03:27:23;;;;;;;0.00;0.00;;;20.50;99.90;19.60;96321.00;;;;5048257;28;20203;-71
2022/06/29 03:29:51;;;;;;;0.00;0.00;;;20.60;99.90;19.70;96326.00;;;;5036656;28;20225;-69
2022/06/29 03:32:19;;;;;;;0.00;0.00;;;20.60;99.90;19.80;96339.00;;;;5038447;28;20199;-71
2022/06/29 03:34:47;;;;;;;0.00;0.00;;;20.70;99.90;19.80;96245.00;;;;5041402;28;20202;-71
2022/06/29 03:37:16;;;;;;;0.00;0.00;;;20.80;99.90;19.90;96344.00;;;;5051589;28;20209;-71
2022/06/29 03:39:44;;;;;;;0.00;0.00;;;20.80;99.90;19.90;96353.00;;;;5043866;28;21004;-71
2022/06/29 03:42:12;;;;;;;0.00;0.00;;;20.80;99.90;19.90;96363.00;;;;5032653;28;20202;-71
2022/06/29 03:44:40;;;;;;;0.00;0.00;;;20.80;99.90;19.80;96355.00;;;;5044099;28;20190;-71
2022/06/29 03:47:08;;;;;;;0.00;0.00;;;20.80;99.90;19.80;96357.00;;;;5032593;28;20219;-71
2022/06/29 03:49:38;;;;;;;0.00;0.00;;;20.80;99.90;20.00;96353.00;;;;5040287;28;20245;-70
2022/06/29 03:52:07;;;;;;;0.00;0.00;;;20.80;99.90;20.00;96340.00;;;;5045514;28;20218;-69
2022/06/29 03:54:36;;;;;;;0.00;0.00;;;20.80;99.90;20.00;96341.00;;;;5048630;28;20669;-69
2022/06/29 03:57:05;;;;;;;0.00;0.00;;;20.90;99.90;20.00;96362.00;;;;5044159;28;20217;-72
2022/06/29 03:59:33;;;;;;;0.00;0.00;;;20.90;99.90;19.70;96324.00;;;;5040242;28;20218;-71
2022/06/29 04:02:01;;;;;;;0.00;0.00;;;20.70;99.90;19.70;96307.00;;;;5052106;28;20577;-71
2022/06/29 04:04:29;;;;;;;0.00;0.00;;;20.70;99.90;19.80;96323.00;;;;5049918;28;20200;-72
2022/06/29 04:06:57;;;;;;;0.00;0.00;;;20.70;99.90;19.60;96321.00;;;;5038038;28;20629;-73
2022/06/29 04:09:25;;;;;;;0.00;0.00;;;20.60;99.90;19.30;96294.00;;;;5030307;28;20226;-73
2022/06/29 04:11:55;;;;;;;0.00;0.00;;;20.20;99.90;19.00;96275.00;;;;5031878;28;20195;-72
2022/06/29 04:14:26;;;;;;;0.00;0.00;;;20.00;99.90;19.10;96290.00;;;;5032602;28;20639;-72
2022/06/29 04:16:57;;;;;;;0.00;0.00;;;20.20;99.90;19.20;96297.00;;;;5038019;28;20241;-74
2022/06/29 04:19:26;;;;;;;0.00;0.00;;;20.20;99.90;19.40;96314.00;;;;5044486;28;20218;-74
2022/06/29 04:21:55;;;;;;;0.00;0.00;;;20.30;99.90;19.50;96316.00;;;;5031903;28;20202;-74
2022/06/29 04:24:23;;;;;;;0.00;0.00;;;20.40;99.90;19.50;96205.00;;;;5035177;28;20667;-73
2022/06/29 04:26:51;;;;;;;0.00;0.00;;;20.40;99.90;19.50;96187.00;;;;5042344;28;20289;-73
2022/06/29 04:29:21;;;;;;;0.00;0.00;;;20.40;99.90;19.40;96180.00;;;;5037543;28;20242;-73
2022/06/29 04:31:49;;;;;;;0.00;0.00;;;20.40;99.90;19.30;96177.00;;;;5038951;28;20194;-74
2022/06/29 04:34:17;;;;;;;0.00;0.00;;;20.30;99.90;19.30;96173.00;;;;5043285;28;20598;-75
2022/06/29 04:36:45;;;;;;;0.00;0.00;;;20.30;99.90;19.10;96154.00;;;;5043255;28;20202;-74
2022/06/29 04:39:13;;;;;;;0.00;0.00;;;20.20;99.90;19.10;96167.00;;;;5052322;28;20214;-74
2022/06/29 04:41:40;;;;;;;0.00;0.00;;;20.20;99.90;19.30;96180.00;;;;5051436;28;20190;-74
2022/06/29 04:44:08;;;;;;;0.00;0.00;;;20.30;99.90;19.50;96186.00;;;;5048230;28;20194;-74
2022/06/29 04:46:38;;;;;;;0.00;0.00;;;20.40;99.90;19.60;96156.00;;;;5041878;28;20210;-75
2022/06/29 04:49:06;;;;;;;0.00;0.00;;;20.50;99.90;19.70;96206.00;;;;5033255;28;20301;-73
2022/06/29 04:51:35;;;;;;;0.00;0.00;;;20.60;99.90;19.60;96134.00;;;;5033754;28;20195;-74
2022/06/29 04:54:04;;;;;;;0.00;0.00;;;20.50;99.90;19.20;96198.00;;;;5038730;28;20194;-75
2022/06/29 04:56:35;;;;;;;0.00;0.00;;;20.50;99.90;19.60;96207.00;;;;5051166;28;20190;-74
2022/06/29 04:59:04;;;;;;;0.00;0.00;;;20.60;99.90;19.50;96196.00;;;;5048245;28;20728;-74
2022/06/29 05:01:33;;;;;;;0.00;0.00;;;20.50;99.90;19.60;96208.00;;;;5035148;28;20190;-73
2022/06/29 05:04:02;;;;;;;0.00;0.00;;;20.60;99.90;19.60;96210.00;;;;5033532;28;20692;-75
2022/06/29 05:06:30;;;;;;;0.00;0.00;;;20.60;99.90;19.60;96203.00;;;;5033036;28;20290;-75
2022/06/29 05:08:59;;;;;;;0.00;0.00;;;20.60;99.90;19.60;96216.00;;;;5032050;28;20270;-74
2022/06/29 05:11:28;;;;;;;0.00;0.00;;;20.60;99.90;19.60;96221.00;;;;5032313;28;20194;-74
2022/06/29 05:13:57;;;;;;;0.00;0.00;;;20.60;99.90;19.70;96240.00;;;;5038301;28;20233;-73
2022/06/29 05:16:25;;;;;;;0.00;0.00;;;20.70;99.90;19.70;96234.00;;;;5031232;28;20203;-73
2022/06/29 05:18:53;;;;;;;0.00;0.00;;;20.70;99.90;19.80;96258.00;;;;5044629;28;20636;-74
2022/06/29 05:21:22;;;;;;;0.00;0.00;;;20.70;99.90;19.90;96237.00;;;;5059276;28;20236;-73
2022/06/29 05:23:50;;;;;;;0.00;0.00;;;20.80;99.90;19.70;96231.00;;;;5049969;28;20213;-75
2022/06/29 05:26:18;;;;;;;0.00;0.00;;;20.70;99.90;19.70;96231.00;;;;5047671;28;20409;-74
2022/06/29 05:28:47;;;;;;;0.00;0.00;;;20.70;99.90;19.80;96173.00;;;;5047979;28;20190;-74
2022/06/29 05:31:17;;;;;;;0.00;0.00;;;20.80;99.90;19.70;96203.00;;;;5047591;28;20615;-74
2022/06/29 05:33:45;;;;;;;0.00;0.00;;;20.70;99.90;19.60;96202.00;;;;5040997;28;20617;-74
2022/06/29 05:36:13;;;;;;;0.00;0.00;;;20.60;99.90;19.80;96196.00;;;;5039891;28;20205;-74
2022/06/29 05:38:42;;;;;;;0.00;0.00;;;20.70;99.90;19.90;96211.00;;;;5046957;28;20283;-73
2022/06/29 05:41:10;;;;;;;0.00;0.00;;;20.80;99.90;20.00;96248.00;;;;5038843;28;20198;-74
2022/06/29 05:43:38;;;;;;;0.00;0.00;;;20.90;99.90;20.10;96222.00;;;;5048594;28;20203;-75
2022/06/29 05:46:06;;;;;;;0.00;0.00;;;20.90;99.90;20.10;96229.00;;;;5048345;28;20186;-76
2022/06/29 05:48:34;;;;;;;0.00;0.00;;;20.90;99.90;20.00;96222.00;;;;5039008;28;20195;-75
2022/06/29 05:51:02;;;;;;;0.00;0.00;;;20.90;99.90;20.00;96166.00;;;;5054559;28;20588;-73
2022/06/29 05:53:30;;;;;;;0.00;0.00;;;20.90;99.90;20.00;96218.00;;;;5043936;28;20205;-74
2022/06/29 05:55:59;;;;;;;0.00;0.00;;;21.00;99.90;19.90;96208.00;;;;5037109;28;20210;-74
2022/06/29 05:58:27;;;;;;;0.00;0.00;;;20.90;99.90;20.00;96220.00;;;;5039943;28;20237;-73
2022/06/29 06:00:55;;;;;;;0.00;0.00;;;20.90;99.90;20.10;96229.00;;;;5052478;28;20455;-75
2022/06/29 06:03:23;;;;;;;0.00;0.00;;;21.00;99.90;20.10;96222.00;;;;5038857;28;20206;-74
2022/06/29 06:05:51;;;;;;;0.00;0.00;;;21.00;99.90;20.10;96222.00;;;;5037692;28;20195;-74
2022/06/29 06:08:24;;;;;;;0.00;0.00;;;21.00;99.90;20.20;96244.00;;;;5050146;28;20218;-72
2022/06/29 06:10:55;;;;;;;0.00;0.00;;;21.00;99.90;20.10;96213.00;;;;5067840;28;20237;-73
2022/06/29 06:13:25;;;;;;;0.00;0.00;;;21.10;99.90;20.10;96244.00;;;;5060438;28;20187;-73
2022/06/29 06:15:53;;;;;;;0.00;0.00;;;21.00;99.90;20.10;96223.00;;;;5044515;28;20195;-73
2022/06/29 06:18:22;;;;;;;0.00;0.00;;;21.00;99.90;20.20;96233.00;;;;5034897;28;20209;-72
2022/06/29 06:20:50;;;;;;;0.00;0.00;;;21.10;99.90;20.30;96241.00;;;;5040996;28;20225;-74
2022/06/29 06:23:20;;;;;;;0.00;0.00;;;21.20;99.90;20.30;96234.00;;;;5053653;28;20320;-73
2022/06/29 06:25:48;;;;;;;0.00;0.00;;;21.20;99.90;20.30;96294.00;;;;5052104;28;20206;-74
2022/06/29 06:28:17;;;;;;;0.00;0.00;;;21.20;99.90;20.30;96220.00;;;;5043925;28;20230;-73
2022/06/29 06:30:48;;;;;;;0.00;0.00;;;21.20;99.90;20.30;96228.00;;;;5044162;28;20706;-73
2022/06/29 06:33:16;;;;;;;0.00;0.00;;;21.20;99.90;20.30;96232.00;;;;5046747;28;20255;-73
2022/06/29 06:35:44;;;;;;;0.00;0.00;;;21.20;99.90;20.10;96223.00;;;;5040911;28;20202;-74
2022/06/29 06:38:16;;;;;;;0.00;0.00;;;21.00;99.90;20.20;96231.00;;;;5047184;28;20575;-74
2022/06/29 06:43:34;;;;;;;0.00;0.00;;;21.10;99.90;20.10;96235.00;;;;5062006;28;20226;-73
2022/06/29 06:46:05;;;;;;;0.00;0.00;;;21.10;99.90;20.00;96208.00;;;;5042680;28;20210;-73
2022/06/29 06:48:33;;;;;;;0.00;0.00;;;21.00;99.90;20.00;96200.00;;;;5045432;28;20245;-73
2022/06/29 06:51:01;;;;;;;0.00;0.00;;;21.00;99.90;20.10;96221.00;;;;5046699;28;20213;-72
2022/06/29 06:53:29;;;;;;;0.00;0.00;;;21.10;99.90;20.20;96217.00;;;;5048233;28;20193;-74
2022/06/29 06:55:57;;;;;;;0.00;0.00;;;21.10;99.90;20.10;96192.00;;;;5048160;28;20684;-73
2022/06/29 06:58:25;;;;;;;0.00;0.00;;;21.00;99.90;20.20;96214.00;;;;5049273;28;20225;-74
2022/06/29 07:00:53;;;;;;;0.00;0.00;;;21.20;99.90;20.30;96207.00;;;;5045169;28;20207;-74
2022/06/29 07:03:23;;;;;;;0.00;0.00;;;21.20;99.90;20.50;96216.00;;;;5048839;28;20210;-74
2022/06/29 07:05:51;;;;;;;0.00;0.00;;;21.30;99.90;20.50;96221.00;;;;5045701;28;20610;-74
2022/06/29 07:08:19;;;;;;;0.00;0.00;;;21.40;99.90;20.50;96206.00;;;;5046297;28;20288;-75
2022/06/29 07:10:47;;;;;;;0.00;0.00;;;21.40;99.90;20.50;96200.00;;;;5046812;28;20237;-74
2022/06/29 07:13:15;;;;;;;0.00;0.00;;;21.40;99.90;20.50;96181.00;;;;5050875;28;20206;-75
2022/06/29 07:15:43;;;;;;;0.00;0.00;;;21.40;99.90;20.50;96194.00;;;;5045897;28;20683;-75
2022/06/29 07:18:11;;;;;;;0.00;0.00;;;21.40;99.90;20.50;96194.00;;;;5048158;28;20198;-75
2022/06/29 07:20:41;;;;;;;0.00;0.00;;;21.40;99.90;20.60;96209.00;;;;5046452;28;20229;-75
2022/06/29 07:23:09;;;;;;;0.00;0.00;;;21.50;99.90;20.60;96186.00;;;;5043160;28;20191;-74
2022/06/29 07:25:37;;;;;;;0.00;0.00;;;21.50;99.90;20.60;96204.00;;;;5042184;28;20588;-74
2022/06/29 07:28:09;;;;;;;0.00;0.00;;;21.50;99.90;20.70;96190.00;;;;5046406;28;20229;-74
2022/06/29 07:30:37;;;;;;;0.00;0.00;;;21.50;99.90;20.60;96201.00;;;;5041863;28;20701;-75
2022/06/29 07:33:08;;;;;;;0.00;0.00;;;21.60;99.90;20.60;96248.00;;;;5048581;28;20210;-74
2022/06/29 07:35:37;;;;;;;0.00;0.00;;;21.60;99.90;20.30;96216.00;;;;5054616;28;20194;-74
2022/06/29 07:38:09;;;;;;;0.00;0.00;;;21.50;99.90;20.60;96181.00;;;;5049185;28;20221;-74
2022/06/29 07:40:37;;;;;;;0.00;0.00;;;21.50;99.90;20.50;96232.00;;;;5048363;28;20280;-74
2022/06/29 07:43:05;;;;;;;0.00;0.00;;;21.50;99.90;20.50;96217.00;;;;5053161;28;20187;-74
2022/06/29 07:45:34;;;;;;;0.00;0.00;;;21.50;99.90;20.50;96220.00;;;;5048743;28;20192;-74
2022/06/29 07:48:02;;;;;;;0.00;0.00;;;21.40;99.90;20.50;96232.00;;;;5049309;28;20215;-74
2022/06/29 07:50:31;;;;;;;0.00;0.00;;;21.50;99.90;20.60;96212.00;;;;5047396;28;20223;-74
2022/06/29 07:52:59;;;;;;;0.00;0.00;;;21.50;99.90;20.60;96237.00;;;;5052797;28;20190;-73
2022/06/29 07:55:28;;;;;;;0.00;0.00;;;21.50;99.90;20.60;96239.00;;;;5048703;28;20198;-74
2022/06/29 07:57:56;;;;;;;0.00;0.00;;;21.50;99.90;20.70;96260.00;;;;5049724;28;20198;-74
2022/06/29 08:00:26;;;;;;;0.00;0.00;;;21.60;99.90;20.70;96252.00;;;;5050285;28;20264;-74
2022/06/29 08:02:54;;;;;;;0.00;0.00;;;21.60;99.90;20.50;96228.00;;;;5047821;28;20195;-74
2022/06/29 08:05:24;;;;;;;0.00;0.00;;;21.50;99.90;20.50;96249.00;;;;5045821;28;20186;-75
2022/06/29 08:07:52;;;;;;;0.00;0.00;;;21.50;99.90;20.50;96253.00;;;;5041963;28;20221;-74
2022/06/29 08:10:20;;;;;;;0.00;0.00;;;21.50;99.90;20.60;96250.00;;;;5045091;28;20714;-74
2022/06/29 08:12:49;;;;;;;0.00;0.00;;;21.60;99.90;20.70;96264.00;;;;5047227;28;20183;-74
2022/06/29 08:15:18;;;;;;;0.00;0.00;;;21.60;99.90;20.70;96250.00;;;;5045323;28;20194;-74
2022/06/29 08:17:48;;;;;;;0.00;0.00;;;21.60;99.90;20.70;96250.00;;;;5044931;28;20205;-74
2022/06/29 08:20:16;;;;;;;0.00;0.00;;;21.60;99.90;20.80;96248.00;;;;5045548;28;20211;-74
2022/06/29 08:22:44;;;;;;;0.00;0.00;;;21.60;99.90;20.80;96249.00;;;;5044996;28;20202;-74
2022/06/29 08:25:13;;;;;;;0.00;0.00;;;21.70;99.90;20.80;96249.00;;;;5048708;28;20565;-74
2022/06/29 08:27:42;;;;;;;0.00;0.00;;;21.60;99.90;20.80;96246.00;;;;5051583;28;20190;-73
2022/06/29 08:30:16;;;;;;;0.00;0.00;;;21.60;99.90;20.70;96243.00;;;;5044819;28;20694;-74
2022/06/29 08:32:44;;;;;;;0.00;0.00;;;21.60;99.90;20.60;96244.00;;;;5043642;28;20583;-74
2022/06/29 08:35:14;;;;;;;0.00;0.00;;;21.60;99.90;20.60;96235.00;;;;5041728;28;20650;-74
2022/06/29 08:37:43;;;;;;;0.00;0.00;;;21.50;99.90;20.60;96242.00;;;;5046218;28;20241;-73
2022/06/29 08:40:15;;;;;;;0.00;0.00;;;21.60;99.90;20.80;96181.00;;;;5051161;28;20237;-74
2022/06/29 08:42:45;;;;;;;0.00;0.00;;;21.60;99.90;20.80;96264.00;;;;5049590;28;20201;-74
2022/06/29 08:45:16;;;;;;;0.00;0.00;;;21.60;99.90;20.90;96230.00;;;;5053140;28;20662;-74
2022/06/29 08:47:44;;;;;;;0.00;0.00;;;21.70;99.90;20.90;96230.00;;;;5047943;28;20226;-74
2022/06/29 08:50:13;;;;;;;0.00;0.00;;;21.70;99.90;20.90;96158.00;;;;5054744;28;20223;-73
2022/06/29 08:52:43;;;;;;;0.00;0.00;;;21.70;99.90;20.90;96257.00;;;;5041526;28;20210;-75
2022/06/29 08:55:12;;;;;;;0.00;0.00;;;21.70;99.90;20.90;96260.00;;;;5045309;28;20240;-73
2022/06/29 08:57:42;;;;;;;0.00;0.00;;;21.70;99.90;21.00;96296.00;;;;5055240;28;20199;-72
2022/06/29 09:00:12;;;;;;;0.00;0.00;;;21.80;99.90;21.10;96212.00;;;;5041491;28;20729;-72
2022/06/29 09:02:45;;;;;;;0.00;0.00;;;21.90;99.90;21.20;96268.00;;;;5053250;28;20727;-73
2022/06/29 09:05:13;;;;;;;0.00;0.00;;;22.00;99.90;21.20;96249.00;;;;5053169;28;20217;-73
2022/06/29 09:07:41;;;;;;;0.00;0.00;;;22.00;99.90;21.20;96249.00;;;;5050250;28;20203;-73
2022/06/29 09:10:12;;;;;;;0.00;0.00;;;22.00;99.90;21.30;96253.00;;;;5050176;28;20602;-72
2022/06/29 09:12:41;;;;;;;0.00;0.00;;;22.10;99.90;21.40;96274.00;;;;5059615;28;20202;-74
2022/06/29 09:15:11;;;;;;;0.00;0.00;;;22.20;99.90;21.50;96283.00;;;;5056775;28;20362;-74
2022/06/29 09:17:39;;;;;;;0.00;0.00;;;22.20;99.90;21.50;96255.00;;;;5053028;28;20198;-74
2022/06/29 09:20:13;;;;;;;0.00;0.00;;;22.30;99.90;21.30;96254.00;;;;5040647;28;20250;-73
2022/06/29 09:23:00;;;;;;;0.00;0.00;;;22.20;99.90;21.40;96264.00;;;;5035495;28;20223;-74
2022/06/29 09:25:31;;;;;;;0.00;0.00;;;22.30;99.90;21.60;96300.00;;;;5043162;28;20297;-74
2022/06/29 09:28:00;;;;;;;0.00;0.00;;;22.40;99.90;21.70;96301.00;;;;5035733;28;20282;-73
2022/06/29 09:30:30;;;;;;;0.00;0.00;;;22.40;99.90;21.80;96300.00;;;;5043612;28;20320;-73
2022/06/29 09:33:03;;;;;;;0.00;0.00;;;22.50;99.90;21.80;96285.00;;;;5060724;28;20250;-73
2022/06/29 09:35:33;;;;;;;0.00;0.00;;;22.60;99.90;21.80;96298.00;;;;5049130;28;20226;-76
2022/06/29 09:38:22;;;;;;;0.00;0.00;;;22.60;99.90;21.90;96240.00;;;;5035349;28;20218;-74
2022/06/29 09:41:09;;;;;;;0.00;0.00;;;22.70;99.90;22.10;96293.00;;;;5035576;28;20242;-73
2022/06/29 09:43:39;;;;;;;0.00;0.00;;;22.80;99.90;22.30;96299.00;;;;5041682;28;20190;-76
2022/06/29 09:46:09;;;;;;;0.00;0.00;;;23.00;99.90;22.10;96281.00;;;;5052615;28;20190;-74
2022/06/29 09:48:40;;;;;;;0.00;0.00;;;23.00;99.90;22.20;96221.00;;;;5057106;28;20626;-75
2022/06/29 09:54:04;;;;;;;0.00;0.00;;;23.00;99.90;22.20;96281.00;;;;5052549;28;20183;-74
2022/06/29 09:56:34;;;;;;;0.00;0.00;;;23.00;99.90;22.20;96266.00;;;;5049074;28;20221;-73
2022/06/29 09:59:06;;;;;;;0.00;0.00;;;23.00;99.90;22.30;96271.00;;;;5056316;28;20218;-75
2022/06/29 10:04:23;;;;;;;0.00;0.00;;;23.20;99.90;22.80;96311.00;;;;5053001;28;20241;-74
2022/06/29 10:06:54;;;;;;;0.00;0.00;;;23.40;99.90;23.00;96373.00;;;;5044559;28;20230;-74
2022/06/29 10:09:22;;;;;;;0.00;0.00;;;23.60;99.90;23.00;96406.00;;;;5053983;28;20225;-74
2022/06/29 10:15:09;;;;;;;0.00;0.00;;;23.80;99.90;23.30;96379.00;;;;5051645;28;20198;-74
2022/06/29 10:17:52;;;;;;;0.00;0.00;;;23.90;99.90;23.30;96375.00;;;;5043769;28;20203;-74
2022/06/29 10:20:39;;;;;;;0.00;0.00;;;24.00;99.90;23.30;96371.00;;;;5039533;28;20237;-74
2022/06/29 10:23:08;;;;;;;0.00;0.00;;;24.00;99.90;23.50;96386.00;;;;5040493;28;20569;-74
2022/06/29 10:25:38;;;;;;;0.00;0.00;;;24.10;99.90;23.50;96341.00;;;;5032978;28;20666;-74
2022/06/29 10:28:13;;;;;;;0.00;0.00;;;24.20;99.90;23.50;96248.00;;;;5044977;28;20653;-74
2022/06/29 10:30:43;;;;;;;0.00;0.00;;;24.20;99.90;23.60;96230.00;;;;5045418;28;20225;-74
2022/06/29 10:33:36;;;;;;;0.00;0.00;;;24.30;99.90;24.00;96248.00;;;;5048039;28;20195;-74
2022/06/29 10:36:08;;;;;;;0.00;0.00;;;24.50;99.90;24.20;96272.00;;;;5033815;28;20662;-75
2022/06/29 10:39:12;;;;;;;0.00;0.00;;;24.70;99.90;24.50;96298.00;;;;5039218;28;20568;-74
2022/06/29 10:45:01;;;;;;;0.00;0.00;;;25.30;99.90;25.20;96382.00;;;;5003980;28;20598;-74
2022/06/29 10:47:29;;;;;;;0.00;0.00;;;25.70;99.90;25.40;96360.00;;;;5036051;28;20203;-74
2022/06/29 10:50:23;;;;;;;0.00;0.00;;;25.80;99.90;25.50;96343.00;;;;5052936;28;20229;-75
2022/06/29 10:52:53;;;;;;;0.00;0.00;;;26.00;99.90;25.60;96332.00;;;;5043217;28;20203;-74
2022/06/29 10:55:24;;;;;;;0.00;0.00;;;26.10;99.90;25.60;96317.00;;;;5039215;28;20203;-75
2022/06/29 10:57:53;;;;;;;0.00;0.00;;;26.10;99.90;25.60;96317.00;;;;5049854;28;20202;-74
2022/06/29 11:00:24;;;;;;;0.00;0.00;;;26.30;99.90;25.50;96298.00;;;;5045811;28;20223;-77
2022/06/29 11:02:53;;;;;;;0.00;0.00;;;26.10;99.90;25.50;96316.00;;;;5041557;28;20602;-74
2022/06/29 11:05:21;;;;;;;0.00;0.00;;;26.30;99.90;25.50;96284.00;;;;5043196;28;20273;-74
2022/06/29 11:13:30;;;;;;;0.00;0.00;;;26.10;99.90;24.90;96252.00;;;;5028400;28;20194;-74
2022/06/29 11:16:01;;;;;;;0.00;0.00;;;25.70;99.90;24.70;96189.00;;;;5043322;28;20195;-75
2022/06/29 11:18:31;;;;;;;0.00;0.00;;;25.50;99.90;24.70;96255.00;;;;5045791;28;20324;-75
2022/06/29 11:21:03;;;;;;;0.00;0.00;;;25.50;99.90;24.70;96253.00;;;;5034344;28;20249;-75
2022/06/29 11:23:34;;;;;;;0.00;0.00;;;25.60;99.90;24.60;96241.00;;;;5033491;28;20257;-75
2022/06/29 11:26:05;;;;;;;0.00;0.00;;;25.50;99.90;24.50;96267.00;;;;5053260;28;20666;-77
2022/06/29 11:28:36;;;;;;;0.00;0.00;;;25.40;99.90;24.50;96228.00;;;;5047799;28;20207;-74